createdAt,value
2018-04-06T00:02:57.298Z,1.77
2018-04-06T00:06:01.694Z,1.15
2018-04-06T00:09:06.245Z,1.62
2018-04-06T00:12:09.622Z,2.03
2018-04-06T00:15:13.751Z,1.95
2018-04-06T00:18:17.658Z,1.73
2018-04-06T00:21:21.731Z,1.98
2018-04-06T00:24:25.055Z,1.40
2018-04-06T00:27:28.304Z,2.47
2018-04-06T00:30:32.172Z,1.60
2018-04-06T00:33:36.235Z,1.83
2018-04-06T00:36:39.512Z,1.92
2018-04-06T00:39:42.829Z,2.12
2018-04-06T00:42:46.880Z,1.80
2018-04-06T00:45:50.923Z,1.70
2018-04-06T00:48:55.005Z,1.45
2018-04-06T00:51:58.257Z,1.73
2018-04-06T00:55:01.608Z,1.98
2018-04-06T00:58:05.628Z,1.75
2018-04-06T01:01:08.960Z,1.55
2018-04-06T01:04:12.209Z,1.83
2018-04-06T01:07:15.462Z,1.80
2018-04-06T01:10:18.768Z,1.60
2018-04-06T01:13:22.977Z,1.85
2018-04-06T01:16:26.242Z,1.83
2018-04-06T01:19:29.571Z,1.85
2018-04-06T01:22:32.814Z,1.92
2018-04-06T01:25:37.028Z,1.62
2018-04-06T01:28:40.298Z,2.33
2018-04-06T01:31:43.611Z,4.87
2018-04-06T01:34:46.885Z,2.40
2018-04-06T01:37:50.227Z,2.30
2018-04-06T01:40:53.549Z,2.22
2018-04-06T01:43:56.842Z,1.58
2018-04-06T01:47:00.864Z,1.85
2018-04-06T01:50:05.190Z,1.50
2018-04-06T01:53:08.574Z,1.42
2018-04-06T01:59:49.991Z,1.67
2018-04-06T02:02:53.932Z,1.60
2018-04-06T02:05:57.259Z,1.73
2018-04-06T02:09:00.618Z,1.58
2018-04-06T02:12:04.379Z,1.48
2018-04-06T02:15:08.598Z,2.05
2018-04-06T02:18:11.970Z,2.30
2018-04-06T02:21:15.599Z,1.70
2018-04-06T02:24:19.522Z,1.85
2018-04-06T02:27:23.061Z,2.45
2018-04-06T02:30:27.389Z,1.27
2018-04-06T02:33:31.134Z,2.05
2018-04-06T02:36:34.747Z,1.70
2018-04-06T02:39:39.053Z,1.70
2018-04-06T02:42:42.369Z,1.90
2018-04-06T02:45:46.707Z,1.58
2018-04-06T02:48:50.372Z,1.42
2018-04-06T02:51:54.447Z,1.62
2018-04-06T02:54:57.738Z,1.67
2018-04-06T02:58:01.210Z,2.10
2018-04-06T03:01:04.905Z,2.42
2018-04-06T03:04:09.310Z,1.50
2018-04-06T03:07:12.753Z,2.12
2018-04-06T03:10:16.207Z,2.10
2018-04-06T03:13:19.939Z,2.20
2018-04-06T03:16:23.394Z,2.83
2018-04-06T03:19:32.346Z,2.05
2018-04-06T03:22:36.470Z,1.60
2018-04-06T03:25:40.125Z,1.98
2018-04-06T03:28:43.543Z,2.40
2018-04-06T03:31:47.053Z,2.85
2018-04-06T03:34:50.944Z,2.72
2018-04-06T03:37:54.426Z,2.17
2018-04-06T03:40:58.172Z,1.95
2018-04-06T03:44:02.105Z,2.58
2018-04-06T03:47:05.526Z,2.58
2018-04-06T03:50:09.029Z,2.00
2018-04-06T03:53:12.384Z,1.50
2018-04-06T03:56:16.705Z,1.95
2018-04-06T03:59:20.038Z,1.80
2018-04-06T04:02:23.408Z,2.42
2018-04-06T04:05:26.859Z,2.42
2018-04-06T04:08:30.273Z,2.12
2018-04-06T04:11:33.636Z,1.73
2018-04-06T04:14:37.069Z,1.50
2018-04-06T04:17:40.510Z,1.58
2018-04-06T04:20:44.765Z,1.90
2018-04-06T04:23:48.310Z,2.72
2018-04-06T04:26:52.121Z,2.95
2018-04-06T04:29:55.521Z,2.10
2018-04-06T04:32:59.455Z,2.20
2018-04-06T04:36:02.836Z,2.08
2018-04-06T04:39:06.571Z,2.37
2018-04-06T04:42:09.920Z,1.80
2018-04-06T04:45:13.373Z,1.75
2018-04-06T04:48:17.095Z,1.60
2018-04-06T04:51:20.544Z,2.35
2018-04-06T04:54:25.253Z,2.60
2018-04-06T04:57:29.433Z,7.43
2018-04-06T05:00:33.815Z,2.33
2018-04-06T05:03:37.133Z,2.33
2018-04-06T05:06:40.563Z,1.80
2018-04-06T05:09:43.982Z,2.50
2018-04-06T05:12:47.536Z,2.70
2018-04-06T05:15:50.955Z,2.20
2018-04-06T05:18:55.282Z,2.83
2018-04-06T05:21:59.378Z,1.73
2018-04-06T05:25:02.872Z,2.90
2018-04-06T05:28:06.357Z,2.55
2018-04-06T05:31:09.962Z,2.90
2018-04-06T05:34:13.480Z,2.97
2018-04-06T05:37:17.157Z,2.50
2018-04-06T05:40:20.607Z,2.53
2018-04-06T05:43:24.859Z,2.95
2018-04-06T05:46:29.068Z,3.15
2018-04-06T05:49:33.714Z,2.83
2018-04-06T05:52:37.617Z,2.80
2018-04-06T05:55:41.073Z,2.55
2018-04-06T05:58:44.424Z,2.78
2018-04-06T06:01:48.098Z,2.22
2018-04-06T06:04:52.366Z,2.45
2018-04-06T06:07:56.060Z,2.60
2018-04-06T06:10:59.758Z,3.28
2018-04-06T06:14:03.287Z,2.80
2018-04-06T06:17:06.715Z,2.87
2018-04-06T06:20:10.117Z,3.22
2018-04-06T06:23:13.548Z,3.12
2018-04-06T06:26:17.209Z,2.97
2018-04-06T06:29:20.766Z,3.55
2018-04-06T06:32:24.515Z,3.67
2018-04-06T06:35:27.797Z,3.05
2018-04-06T06:38:31.910Z,4.25
2018-04-06T06:41:35.635Z,3.63
2018-04-06T06:44:39.350Z,3.50
2018-04-06T06:47:42.876Z,3.40
2018-04-06T06:50:46.287Z,4.97
2018-04-06T06:53:50.476Z,3.60
2018-04-06T06:56:54.687Z,3.07
2018-04-06T06:59:57.976Z,2.90
2018-04-06T07:03:01.424Z,2.93
2018-04-06T07:06:05.364Z,3.13
2018-04-06T07:09:09.852Z,3.20
2018-04-06T07:12:13.426Z,3.60
2018-04-06T07:15:17.610Z,3.93
2018-04-06T07:18:22.285Z,3.10
2018-04-06T07:21:25.753Z,3.53
2018-04-06T07:24:29.938Z,3.80
2018-04-06T07:27:33.368Z,4.10
2018-04-06T07:30:36.878Z,3.93
2018-04-06T07:33:40.197Z,3.77
2018-04-06T07:36:43.626Z,3.53
2018-04-06T07:39:47.098Z,4.13
2018-04-06T07:42:50.504Z,3.97
2018-04-06T07:45:55.580Z,4.27
2018-04-06T07:48:59.054Z,3.40
2018-04-06T07:52:03.074Z,2.80
2018-04-06T07:55:06.370Z,3.37
2018-04-06T07:58:09.753Z,3.90
2018-04-06T08:01:13.178Z,3.80
2018-04-06T08:04:17.379Z,3.23
2018-04-06T08:07:21.467Z,3.67
2018-04-06T08:10:26.500Z,3.40
2018-04-06T08:13:30.029Z,2.57
2018-04-06T08:16:33.364Z,2.63
2018-04-06T08:19:36.705Z,2.63
2018-04-06T08:22:40.201Z,2.90
2018-04-06T08:25:43.694Z,2.87
2018-04-06T08:28:47.939Z,2.50
2018-04-06T08:31:51.262Z,2.73
2018-04-06T08:34:54.653Z,2.53
2018-04-06T08:37:58.036Z,1.93
2018-04-06T08:41:02.866Z,1.80
2018-04-06T08:44:06.317Z,1.53
2018-04-06T08:47:09.789Z,1.70
2018-04-06T08:50:13.952Z,1.97
2018-04-06T08:53:18.764Z,1.93
2018-04-06T08:56:22.410Z,2.40
2018-04-06T08:59:26.570Z,2.20
2018-04-06T09:02:29.911Z,1.53
2018-04-06T09:05:33.292Z,1.67
2018-04-06T09:08:37.026Z,1.60
2018-04-06T09:11:41.441Z,1.87
2018-04-06T09:14:44.919Z,1.80
2018-04-06T09:17:48.167Z,1.77
2018-04-06T09:20:52.542Z,3.70
2018-04-06T09:23:55.840Z,2.00
2018-04-06T09:27:00.283Z,2.13
2018-04-06T09:30:03.582Z,2.40
2018-04-06T09:33:06.974Z,2.13
2018-04-06T09:36:10.289Z,2.30
2018-04-06T09:39:15.339Z,2.40
2018-04-06T09:42:19.243Z,1.90
2018-04-06T09:45:26.508Z,2.50
2018-04-06T09:51:59.024Z,2.83
2018-04-06T09:55:03.273Z,1.70
2018-04-06T09:58:06.863Z,2.53
2018-04-06T10:01:10.337Z,2.10
2018-04-06T10:04:18.690Z,2.80
2018-04-06T10:07:23.015Z,2.53
2018-04-06T10:10:27.227Z,2.03
2018-04-06T10:13:30.527Z,2.10
2018-04-06T10:16:34.597Z,1.83
2018-04-06T10:19:38.136Z,1.77
2018-04-06T10:22:41.536Z,1.50
2018-04-06T10:25:45.260Z,2.10
2018-04-06T10:28:48.834Z,1.80
2018-04-06T10:31:52.852Z,2.13
2018-04-06T10:34:56.274Z,2.60
2018-04-06T10:38:01.095Z,2.47
2018-04-06T10:41:05.409Z,2.00
2018-04-06T10:44:08.786Z,2.70
2018-04-06T10:47:12.140Z,2.50
2018-04-06T10:50:15.520Z,1.93
2018-04-06T10:53:19.013Z,2.03
2018-04-06T10:56:22.907Z,1.73
2018-04-06T10:59:26.802Z,1.20
2018-04-06T11:02:30.203Z,2.20
2018-04-06T11:05:33.551Z,1.77
2018-04-06T11:08:37.947Z,1.77
2018-04-06T11:11:41.330Z,1.80
2018-04-06T11:14:44.738Z,2.00
2018-04-06T11:17:48.823Z,1.50
2018-04-06T11:20:53.133Z,1.80
2018-04-06T11:23:56.533Z,1.80
2018-04-06T11:26:59.991Z,1.93
2018-04-06T11:30:03.590Z,1.50
2018-04-06T11:33:07.095Z,1.70
2018-04-06T11:36:11.427Z,1.50
2018-04-06T11:39:14.732Z,1.63
2018-04-06T11:42:18.206Z,1.43
2018-04-06T11:45:22.219Z,1.30
2018-04-06T11:48:25.829Z,1.30
2018-04-06T11:51:29.035Z,1.17
2018-04-06T11:54:32.504Z,1.33
2018-04-06T11:57:35.919Z,1.33
2018-04-06T12:00:40.391Z,1.37
2018-04-06T12:03:43.883Z,1.83
2018-04-06T12:06:47.260Z,1.20
2018-04-06T12:09:50.671Z,1.07
2018-04-06T12:12:54.100Z,0.90
2018-04-06T12:15:58.230Z,1.27
2018-04-06T12:19:02.342Z,1.33
2018-04-06T12:22:05.807Z,1.20
2018-04-06T12:25:09.937Z,1.00
2018-04-06T12:28:13.273Z,1.90
2018-04-06T12:31:16.804Z,1.50
2018-04-06T12:34:20.219Z,1.60
2018-04-06T12:37:23.606Z,1.53
2018-04-06T12:40:27.269Z,1.47
2018-04-06T12:43:30.592Z,1.00
2018-04-06T12:46:34.110Z,1.50
2018-04-06T12:49:37.851Z,1.27
2018-04-06T12:52:41.431Z,1.47
2018-04-06T12:55:45.026Z,1.07
2018-04-06T13:02:08.645Z,1.20
2018-04-06T13:05:12.475Z,1.20
2018-04-06T13:08:15.875Z,1.23
2018-04-06T13:11:19.371Z,1.67
2018-04-06T13:14:22.730Z,1.30
2018-04-06T13:17:26.374Z,1.50
2018-04-06T13:20:30.698Z,1.30
2018-04-06T13:23:33.957Z,1.13
2018-04-06T13:26:37.359Z,1.60
2018-04-06T13:29:40.670Z,1.40
2018-04-06T13:32:44.875Z,1.50
2018-04-06T13:35:48.422Z,1.20
2018-04-06T13:38:52.482Z,1.40
2018-04-06T13:41:55.774Z,1.90
2018-04-06T13:44:59.129Z,1.47
2018-04-06T13:48:03.254Z,1.43
2018-04-06T13:51:07.667Z,1.40
2018-04-06T13:54:12.029Z,0.90
2018-04-06T13:57:15.502Z,1.70
2018-04-06T14:00:18.871Z,1.20
2018-04-06T14:03:22.467Z,2.43
2018-04-06T14:06:27.041Z,1.13
2018-04-06T14:09:31.340Z,3.87
2018-04-06T14:12:35.779Z,2.27
2018-04-06T14:15:40.960Z,1.00
2018-04-06T14:18:44.486Z,1.57
2018-04-06T14:21:48.870Z,1.37
2018-04-06T14:24:52.377Z,1.53
2018-04-06T14:27:55.722Z,1.33
2018-04-06T14:30:59.995Z,1.70
2018-04-06T14:34:03.325Z,1.20
2018-04-06T14:37:06.652Z,1.50
2018-04-06T14:40:09.999Z,1.80
2018-04-06T14:43:13.860Z,1.63
2018-04-06T14:46:18.024Z,2.17
2018-04-06T14:49:21.422Z,2.00
2018-04-06T14:52:24.869Z,1.60
2018-04-06T14:55:28.205Z,2.40
2018-04-06T14:58:31.581Z,1.63
2018-04-06T15:01:34.884Z,1.60
2018-04-06T15:04:38.935Z,1.23
2018-04-06T15:07:42.326Z,1.47
2018-04-06T15:10:46.728Z,2.00
2018-04-06T15:13:51.162Z,1.90
2018-04-06T15:16:54.715Z,2.13
2018-04-06T15:19:59.099Z,1.97
2018-04-06T15:23:02.642Z,1.77
2018-04-06T15:26:05.931Z,3.33
2018-04-06T15:29:09.401Z,1.83
2018-04-06T15:32:13.490Z,1.50
2018-04-06T15:35:16.911Z,1.87
2018-04-06T15:38:20.415Z,1.60
2018-04-06T15:41:23.988Z,1.70
2018-04-06T15:44:27.462Z,1.60
2018-04-06T15:47:30.958Z,1.40
2018-04-06T15:50:34.372Z,1.57
2018-04-06T15:53:38.658Z,1.57
2018-04-06T15:56:42.083Z,1.33
2018-04-06T15:59:45.652Z,1.23
2018-04-06T16:02:49.939Z,1.67
2018-04-06T16:05:53.598Z,1.50
2018-04-06T16:08:56.961Z,1.60
2018-04-06T16:12:00.404Z,1.20
2018-04-06T16:15:03.667Z,1.80
2018-04-06T16:18:07.397Z,2.10
2018-04-06T16:21:11.520Z,1.80
2018-04-06T16:24:15.961Z,1.67
2018-04-06T16:27:19.385Z,1.23
2018-04-06T16:30:23.441Z,1.43
2018-04-06T16:33:27.603Z,1.30
2018-04-06T16:36:31.770Z,5.57
2018-04-06T16:39:35.359Z,1.50
2018-04-06T16:42:38.956Z,1.50
2018-04-06T16:45:42.192Z,2.00
2018-04-06T16:48:45.724Z,1.40
2018-04-06T16:51:49.042Z,1.97
2018-04-06T16:54:52.419Z,1.33
2018-04-06T16:57:56.502Z,1.53
2018-04-06T17:01:00.156Z,1.50
2018-04-06T17:04:03.655Z,1.80
2018-04-06T17:07:07.081Z,1.90
2018-04-06T17:10:10.809Z,1.80
2018-04-06T17:13:14.292Z,1.60
2018-04-06T17:16:17.796Z,1.90
2018-04-06T17:19:21.114Z,3.10
2018-04-06T17:22:25.356Z,2.70
2018-04-06T17:25:28.727Z,1.90
2018-04-06T17:28:32.182Z,1.97
2018-04-06T17:31:35.583Z,2.63
2018-04-06T17:34:40.013Z,2.80
2018-04-06T17:37:43.990Z,1.80
2018-04-06T17:40:48.115Z,2.20
2018-04-06T17:43:51.717Z,2.63
2018-04-06T17:46:56.241Z,5.60
2018-04-06T17:50:01.691Z,6.77
2018-04-06T17:53:06.204Z,6.90
2018-04-06T17:56:09.805Z,6.10
2018-04-06T17:59:14.009Z,5.77
2018-04-06T18:02:17.328Z,4.73
2018-04-06T18:05:20.757Z,5.57
2018-04-06T18:08:24.489Z,5.87
2018-04-06T18:11:28.617Z,4.10
2018-04-06T18:14:32.049Z,3.53
2018-04-06T18:17:35.650Z,2.90
2018-04-06T18:20:40.211Z,3.30
2018-04-06T18:23:43.496Z,3.83
2018-04-06T18:26:46.780Z,3.40
2018-04-06T18:29:50.847Z,3.03
2018-04-06T18:32:54.494Z,3.47
2018-04-06T18:35:58.763Z,3.00
2018-04-06T18:39:02.230Z,2.40
2018-04-06T18:42:06.058Z,2.33
2018-04-06T18:45:09.548Z,2.90
2018-04-06T18:48:13.564Z,2.10
2018-04-06T18:51:18.180Z,3.00
2018-04-06T18:54:21.619Z,2.80
2018-04-06T18:57:25.191Z,3.80
2018-04-06T19:00:28.769Z,3.13
2018-04-06T19:03:32.227Z,2.28
2018-04-06T19:06:36.333Z,2.87
2018-04-06T19:09:40.869Z,3.05
2018-04-06T19:12:44.507Z,2.90
2018-04-06T19:15:48.038Z,3.08
2018-04-06T19:18:51.441Z,2.58
2018-04-06T19:21:55.061Z,2.92
2018-04-06T19:24:58.722Z,4.00
2018-04-06T19:28:02.313Z,3.50
2018-04-06T19:31:05.918Z,3.30
2018-04-06T19:34:09.244Z,3.67
2018-04-06T19:37:12.609Z,5.43
2018-04-06T19:40:15.955Z,7.40
2018-04-06T19:43:19.285Z,6.25
2018-04-06T19:46:22.642Z,6.35
2018-04-06T19:49:26.435Z,4.65
2018-04-06T19:52:29.800Z,5.20
2018-04-06T19:55:33.896Z,4.70
2018-04-06T19:58:37.449Z,7.28
2018-04-06T20:01:41.134Z,8.60
2018-04-06T20:04:45.706Z,9.13
2018-04-06T20:07:49.268Z,8.60
2018-04-06T20:10:53.926Z,4.30
2018-04-06T20:13:57.925Z,4.35
2018-04-06T20:17:01.346Z,4.35
2018-04-06T20:20:04.649Z,3.30
2018-04-06T20:23:08.177Z,2.55
2018-04-06T20:26:12.487Z,2.58
2018-04-06T20:29:15.944Z,2.70
2018-04-06T20:32:20.020Z,2.70
2018-04-06T20:35:23.440Z,2.50
2018-04-06T20:38:26.868Z,2.30
2018-04-06T20:41:30.221Z,3.15
2018-04-06T20:44:33.482Z,2.55
2018-04-06T20:47:36.889Z,3.42
2018-04-06T20:50:40.676Z,2.42
2018-04-06T20:53:46.104Z,2.95
2018-04-06T20:56:49.744Z,2.97
2018-04-06T20:59:53.916Z,2.80
2018-04-06T21:02:58.232Z,2.67
2018-04-06T21:06:02.442Z,3.17
2018-04-06T21:09:06.888Z,3.80
2018-04-06T21:12:10.184Z,3.03
2018-04-06T21:15:13.831Z,3.00
2018-04-06T21:18:17.249Z,3.25
2018-04-06T21:21:20.838Z,3.05
2018-04-06T21:24:24.233Z,3.97
2018-04-06T21:27:27.915Z,3.15
2018-04-06T21:30:31.336Z,2.53
2018-04-06T21:33:34.661Z,3.92
2018-04-06T21:36:38.242Z,2.90
2018-04-06T21:39:41.565Z,3.33
2018-04-06T21:42:45.565Z,2.92
2018-04-06T21:45:48.899Z,2.60
2018-04-06T21:48:52.483Z,3.30
2018-04-06T21:51:55.699Z,3.08
2018-04-06T21:54:59.806Z,3.05
2018-04-06T21:58:03.117Z,3.10
2018-04-06T22:01:07.338Z,3.30
2018-04-06T22:04:11.066Z,3.75
2018-04-06T22:07:14.332Z,3.25
2018-04-06T22:10:18.689Z,3.75
2018-04-06T22:13:22.203Z,4.20
2018-04-06T22:16:25.528Z,6.47
2018-04-06T22:19:28.878Z,4.22
2018-04-06T22:22:32.265Z,4.22
2018-04-06T22:25:35.820Z,3.85
2018-04-06T22:28:40.157Z,3.55
2018-04-06T22:31:43.926Z,3.85
2018-04-06T22:34:47.466Z,3.25
2018-04-06T22:37:50.849Z,3.60
2018-04-06T22:40:54.347Z,3.05
2018-04-06T22:43:57.990Z,3.83
2018-04-06T22:47:02.109Z,3.60
2018-04-06T22:50:05.778Z,3.97
2018-04-06T22:53:09.927Z,3.50
2018-04-06T22:56:13.969Z,3.92
2018-04-06T22:59:17.319Z,3.30
2018-04-06T23:02:21.362Z,3.17
2018-04-06T23:05:25.018Z,3.60
2018-04-06T23:08:28.521Z,2.75
2018-04-06T23:11:31.853Z,3.37
2018-04-06T23:14:36.097Z,3.45
2018-04-06T23:17:39.381Z,2.92
2018-04-06T23:20:42.809Z,3.50
2018-04-06T23:23:46.281Z,3.33
2018-04-06T23:26:49.586Z,3.47
2018-04-06T23:29:54.021Z,3.40
2018-04-06T23:32:57.313Z,3.12
2018-04-06T23:36:00.936Z,3.08
2018-04-06T23:39:04.562Z,3.22
2018-04-06T23:42:07.851Z,3.12
2018-04-06T23:45:11.138Z,2.87
2018-04-06T23:48:15.158Z,3.25
2018-04-06T23:51:18.983Z,2.92
2018-04-06T23:54:22.320Z,2.97
2018-04-06T23:57:25.753Z,3.05
